Hovedside
METAR-TAF:

METAR-TAF

Lufthavner :

Halmstad, Sverige

Halmstad lufthavn

breddegrad: 56-41N, lengdegrad: 012-50E, høyde over havet: 30 m

Gjeldene værobservasjon

Denne rapporten ble laget for 21 minutter siden, klokken 22:20 UTC
Vind 6 kt fra Øst-nordøst, skiftende mellom Nordøst og Øst-sørøst
Temperatur 16°C
Luftfuktighet 82%
Trykk 1011 hPa
Sikt 10 km eller mer

METAR: ESMT 242220Z AUTO 07006KT 040V110 9999 BKN083/// 16/13 Q1011

Tid: 00:41 (22:41 UTC)

Varsel

Denne rapporten ble laget for 10 timer og 14 minutter siden, klokken 12:27 UTC
Varsel gyldig fra 24. klokken 13 UTC til 24. klokken 16 UTC
Vind 8 kt fra Nordøst
Sikt 10 km eller mer
Spredte skyer i en høyde av 1000 ft
Brutte skyer i en høyde av 1500 ft
Midlertidig
fra 24. klokken 13 UTC til 24. klokken 16 UTC
Sikt: 4000 m
Brutte skyer i en høyde av 800 ft
regn, duskregn

TAF: ESMT 241227Z 2413/2416 05008KT 9999 SCT010 BKN015 TEMPO 2413/2416 4000 RADZ BKN008

Værobservasjoner og værvarsel for over 4000 flyplasser (METAR- og TAF-rapporter).

Tilgjengelige stasjoner er representert av de røde og gule prikkene på kartet.

Hold musepekeren over prikken for å se navnet på stasjonen.

Klikk så for å se værobservasjoner og -varsler.

For å forandre kartet kan du klikke på den grønne knappen med svart kryss for å zoome inn, på den grønne knappen med strek for å zoome ut, eller på de grønne pilene for å se tilstøtende kart.


METAR-TAF: